Time;durP1;ratioP1;P1;durP2;ratioP2;P2;SDS_P1;SDS_P2;PMS_P1;PMS_P2;Temp;Humidity;BMP_temperature;BMP_pressure;BME280_temperature;BME280_humidity;BME280_pressure;Samples;Min_cycle;Max_cycle;Signal;HPM_P1;HPM_P2
2023/04/08 00:00:18;;;;;;;;;17.00;15.00;;;;;8.51;75.00;102054.97;5119469;27;45273;-65
2023/04/08 00:02:43;;;;;;;;;16.00;14.00;;;;;8.45;75.34;102041.81;5119257;27;45479;-65
2023/04/08 00:05:09;;;;;;;;;12.00;12.00;;;;;8.50;74.94;102047.97;5119661;27;45464;-65
2023/04/08 00:07:35;;;;;;;;;16.33;13.33;;;;;8.37;75.84;102031.22;5119359;27;45437;-64
2023/04/08 00:10:00;;;;;;;;;17.33;13.67;;;;;8.36;75.76;102032.09;5119412;27;45229;-64
2023/04/08 00:12:25;;;;;;;;;17.00;14.33;;;;;8.39;75.79;102038.22;5119509;27;45307;-65
2023/04/08 00:14:51;;;;;;;;;16.00;13.00;;;;;8.46;75.32;102055.81;5119242;27;45432;-64
2023/04/08 00:17:16;;;;;;;;;13.67;11.67;;;;;8.35;74.95;102038.22;5119346;27;45388;-65
2023/04/08 00:19:43;;;;;;;;;18.00;11.00;;;;;8.26;75.94;102034.63;5119126;27;45322;-64
2023/04/08 00:22:08;;;;;;;;;18.67;14.33;;;;;8.26;75.91;102043.38;5119274;27;45386;-65
2023/04/08 00:24:35;;;;;;;;;22.67;19.33;;;;;8.24;76.25;102037.25;5119398;27;45330;-65
2023/04/08 00:27:01;;;;;;;;;16.67;14.00;;;;;8.21;75.76;102031.97;5118818;27;46658;-64
2023/04/08 00:29:27;;;;;;;;;15.67;14.33;;;;;8.28;76.49;102046.03;5119119;27;45250;-65
2023/04/08 00:31:52;;;;;;;;;19.00;16.00;;;;;8.23;76.22;102038.09;5119055;27;45251;-65
2023/04/08 00:34:17;;;;;;;;;13.67;13.67;;;;;8.24;75.85;102050.38;5119474;27;45438;-65
2023/04/08 00:36:44;;;;;;;;;17.33;15.33;;;;;8.19;75.83;102038.94;5118841;27;45545;-65
2023/04/08 00:39:10;;;;;;;;;19.00;14.00;;;;;8.12;76.31;102037.16;5118928;27;45240;-64
2023/04/08 00:41:35;;;;;;;;;15.33;14.33;;;;;8.01;76.30;102023.94;5118813;27;45347;-64
2023/04/08 00:44:01;;;;;;;;;13.67;13.33;;;;;8.09;76.49;102045.88;5119012;27;45290;-64
2023/04/08 00:46:26;;;;;;;;;13.00;12.00;;;;;7.97;76.38;102033.53;5119024;27;46459;-64
2023/04/08 00:48:53;;;;;;;;;14.00;13.33;;;;;8.02;76.34;102042.31;5118794;27;45338;-64
2023/04/08 00:51:19;;;;;;;;;12.00;12.00;;;;;8.01;75.69;102039.69;5118801;27;45285;-64
2023/04/08 00:53:44;;;;;;;;;16.67;14.00;;;;;8.02;77.26;102044.06;5114217;27;45350;-64
2023/04/08 00:56:10;;;;;;;;;18.00;11.33;;;;;7.93;77.25;102030.84;5097607;27;47264;-64
2023/04/08 00:58:36;;;;;;;;;16.67;13.67;;;;;8.05;77.43;102033.59;5098153;27;45432;-64
2023/04/08 01:01:16;;;;;;;;;14.33;12.00;;;;;8.10;77.36;102026.63;5098065;27;45244;-64
2023/04/08 01:04:40;;;;;;;;;17.33;14.33;;;;;8.25;76.64;102046.88;5087257;27;45475;-65
2023/04/08 01:07:14;;;;;;;;;11.67;11.67;;;;;8.32;76.72;102046.06;5014804;28;47397;-64
2023/04/08 01:09:45;;;;;;;;;19.67;13.00;;;;;8.29;76.75;102038.16;5014812;28;45456;-65
2023/04/08 01:12:16;;;;;;;;;11.00;11.00;;;;;8.08;77.03;102002.13;5014805;28;45486;-65
2023/04/08 01:14:46;;;;;;;;;10.33;8.67;;;;;8.33;76.93;102036.44;5014726;28;45531;-64
2023/04/08 01:17:11;;;;;;;;;20.67;16.00;;;;;8.40;77.06;102048.72;5014678;28;45676;-64
2023/04/08 01:19:40;;;;;;;;;10.67;10.67;;;;;8.39;77.02;102046.97;5014751;28;45307;-64
2023/04/08 01:22:26;;;;;;;;;20.00;15.67;;;;;8.39;76.86;102041.72;5014492;28;45529;-64
2023/04/08 01:25:00;;;;;;;;;15.67;14.67;;;;;8.50;77.11;102058.47;5014776;28;45323;-64
2023/04/08 01:27:27;;;;;;;;;16.33;12.00;;;;;8.28;77.38;102009.28;5014104;28;46419;-64
2023/04/08 01:29:54;;;;;;;;;16.67;11.67;;;;;8.57;77.85;102048.91;5017627;28;45287;-64
2023/04/08 01:32:20;;;;;;;;;19.00;16.67;;;;;8.62;77.29;102055.03;5018433;28;45433;-64
2023/04/08 01:34:46;;;;;;;;;21.67;17.00;;;;;8.61;76.56;102040.19;5018153;28;45506;-64
2023/04/08 01:37:13;;;;;;;;;20.67;15.00;;;;;8.62;77.40;102056.78;5017531;28;46747;-64
2023/04/08 01:39:40;;;;;;;;;14.33;12.00;;;;;8.47;77.00;102033.94;5018140;28;45309;-64
2023/04/08 01:42:07;;;;;;;;;15.67;15.33;;;;;8.61;77.30;102055.94;5022601;28;45613;-64
2023/04/08 01:44:34;;;;;;;;;17.33;14.33;;;;;8.67;77.24;102058.59;5098048;27;45358;-65
2023/04/08 01:47:02;;;;;;;;;12.33;12.33;;;;;8.73;76.47;102062.09;5100631;27;47680;-65
2023/04/08 01:49:29;;;;;;;;;15.00;11.67;;;;;8.64;76.58;102050.69;5101055;27;45735;-65
2023/04/08 01:51:57;;;;;;;;;13.67;12.33;;;;;8.66;76.87;102059.44;5100987;27;45229;-65
2023/04/08 01:54:23;;;;;;;;;8.33;8.00;;;;;8.67;77.18;102062.94;5101146;27;45450;-64
2023/04/08 01:56:51;;;;;;;;;12.67;10.00;;;;;8.60;77.12;102056.78;5100530;27;45993;-64
2023/04/08 01:59:20;;;;;;;;;12.00;9.00;;;;;8.65;77.07;102054.19;5100969;27;45247;-64
2023/04/08 02:01:47;;;;;;;;;15.33;10.67;;;;;8.67;77.17;102049.81;5100669;27;45272;-64
2023/04/08 02:04:12;;;;;;;;;14.33;9.67;;;;;8.75;76.93;102060.38;5100945;27;45454;-64
2023/04/08 02:06:38;;;;;;;;;17.33;13.00;;;;;8.69;77.05;102053.34;5100827;27;46489;-64
2023/04/08 02:09:04;;;;;;;;;12.33;12.00;;;;;8.78;76.78;102060.38;5100689;27;45370;-64
2023/04/08 02:11:30;;;;;;;;;17.33;14.00;;;;;8.80;77.00;102061.25;5100739;27;45248;-64
2023/04/08 02:13:57;;;;;;;;;14.00;12.00;;;;;8.77;76.72;102053.38;5100840;27;45375;-64
2023/04/08 02:16:33;;;;;;;;;20.33;13.33;;;;;8.85;76.44;102064.81;5099935;27;46217;-64
2023/04/08 02:19:11;;;;;;;;;16.00;14.00;;;;;8.85;76.43;102068.31;5100687;27;45347;-64
2023/04/08 02:21:49;;;;;;;;;15.00;14.00;;;;;8.87;76.52;102066.59;5100759;27;45366;-64
2023/04/08 02:24:16;;;;;;;;;18.00;13.00;;;;;8.85;76.46;102060.44;5100685;27;45668;-64
2023/04/08 02:26:44;;;;;;;;;14.33;12.67;;;;;8.89;75.91;102069.22;5099744;27;46218;-64
2023/04/08 02:29:13;;;;;;;;;16.00;13.00;;;;;8.86;76.74;102061.31;5100198;27;45473;-64
2023/04/08 02:31:41;;;;;;;;;15.67;12.00;;;;;8.84;76.47;102076.19;5100520;27;45393;-64
2023/04/08 02:34:09;;;;;;;;;12.67;11.33;;;;;8.81;76.98;102070.91;5100436;27;45474;-64
2023/04/08 02:36:35;;;;;;;;;12.67;11.00;;;;;8.80;77.32;102061.25;5100150;27;46221;-64
2023/04/08 02:39:00;;;;;;;;;10.67;10.67;;;;;8.81;77.36;102069.16;5100050;27;45391;-64
2023/04/08 02:41:30;;;;;;;;;11.67;9.67;;;;;8.70;77.10;102052.47;5113010;27;45682;-64
2023/04/08 02:43:55;;;;;;;;;18.00;12.33;;;;;8.89;77.02;102079.72;5120716;27;45348;-64
2023/04/08 02:46:21;;;;;;;;;18.33;10.33;;;;;8.87;77.07;102070.94;5120342;27;45334;-64
2023/04/08 02:48:46;;;;;;;;;11.33;10.33;;;;;8.94;76.50;102083.25;5120849;27;45315;-64
2023/04/08 02:51:12;;;;;;;;;12.67;11.67;;;;;8.87;76.40;102069.22;5120753;27;45251;-64
2023/04/08 02:53:37;;;;;;;;;10.00;9.67;;;;;8.97;76.20;102080.63;5120677;27;45426;-64
2023/04/08 02:56:02;;;;;;;;;22.67;15.67;;;;;9.03;76.04;102083.31;5120680;27;45268;-64
2023/04/08 02:58:28;;;;;;;;;13.33;11.33;;;;;9.04;76.04;102079.78;5120616;27;45360;-64
2023/04/08 03:00:53;;;;;;;;;12.00;12.00;;;;;9.07;76.02;102084.19;5120827;27;45417;-64
2023/04/08 03:03:19;;;;;;;;;17.00;14.00;;;;;9.05;75.49;102075.44;5120642;27;45227;-65
2023/04/08 03:05:44;;;;;;;;;17.00;14.00;;;;;9.05;75.45;102080.69;5120359;27;46587;-65
2023/04/08 03:08:09;;;;;;;;;12.67;11.00;;;;;9.07;75.39;102084.19;5120206;27;45217;-64
2023/04/08 03:10:35;;;;;;;;;11.00;11.00;;;;;9.02;75.27;102085.94;5120516;27;45390;-65
2023/04/08 03:13:00;;;;;;;;;15.00;14.00;;;;;8.98;75.29;102066.63;5120403;27;45470;-65
2023/04/08 03:15:26;;;;;;;;;15.67;12.67;;;;;9.04;75.23;102076.28;5120230;27;45287;-65
2023/04/08 03:17:51;;;;;;;;;13.33;11.67;;;;;9.05;75.33;102078.94;5120352;27;45202;-65
2023/04/08 03:20:16;;;;;;;;;15.67;10.67;;;;;9.07;75.27;102078.94;5120277;27;45438;-65
2023/04/08 03:22:42;;;;;;;;;14.00;11.67;;;;;9.09;74.95;102076.31;5120217;27;45377;-65
2023/04/08 03:25:08;;;;;;;;;12.00;11.33;;;;;9.05;74.77;102067.56;5119965;27;46120;-65
2023/04/08 03:27:33;;;;;;;;;13.67;12.33;;;;;9.08;74.78;102075.44;5119832;27;45433;-64
2023/04/08 03:29:58;;;;;;;;;10.00;10.00;;;;;9.12;74.46;102086.84;5120405;27;45363;-65
2023/04/08 03:32:24;;;;;;;;;11.67;11.67;;;;;9.07;74.71;102074.53;5120269;27;45525;-64
2023/04/08 03:34:50;;;;;;;;;13.67;12.00;;;;;9.18;74.47;102090.38;5119876;27;47028;-64
2023/04/08 03:37:16;;;;;;;;;15.00;13.00;;;;;9.06;74.75;102072.81;5119893;27;45427;-65
2023/04/08 03:39:41;;;;;;;;;15.67;12.00;;;;;9.18;74.38;102089.50;5119708;27;45332;-64
2023/04/08 03:42:07;;;;;;;;;17.33;13.67;;;;;9.10;74.53;102085.97;5119729;27;45147;-65
2023/04/08 03:44:32;;;;;;;;;15.00;11.33;;;;;9.18;74.90;102095.63;5119572;27;45345;-64
2023/04/08 03:46:57;;;;;;;;;17.00;11.00;;;;;9.17;74.66;102093.88;5119347;27;45204;-65
2023/04/08 03:49:23;;;;;;;;;13.00;11.00;;;;;9.21;74.01;102103.53;5119904;27;45379;-64
2023/04/08 03:51:49;;;;;;;;;15.33;12.67;;;;;9.17;73.75;102078.09;5119537;27;45212;-65
2023/04/08 03:54:14;;;;;;;;;13.00;11.67;;;;;9.17;73.28;102085.13;5119740;27;46702;-64
2023/04/08 03:56:40;;;;;;;;;15.33;9.67;;;;;9.14;73.32;102080.72;5119577;27;45590;-64
2023/04/08 03:59:05;;;;;;;;;11.00;8.00;;;;;9.24;73.56;102098.28;5119634;27;45714;-64
2023/04/08 04:01:31;;;;;;;;;12.33;11.00;;;;;9.25;73.42;102091.31;5119692;27;45199;-64
2023/04/08 04:03:56;;;;;;;;;12.00;8.67;;;;;9.29;72.97;102098.31;5119132;27;46161;-64
2023/04/08 04:06:22;;;;;;;;;11.33;9.33;;;;;9.31;72.53;102095.69;5119597;27;45581;-64
2023/04/08 04:08:49;;;;;;;;;11.33;10.67;;;;;9.30;72.74;102091.31;5119558;27;45296;-64
2023/04/08 04:11:15;;;;;;;;;13.67;11.00;;;;;9.23;72.60;102077.25;5119612;27;45437;-64
2023/04/08 04:13:40;;;;;;;;;15.00;11.00;;;;;9.22;72.00;102084.28;5118179;27;46487;-64
2023/04/08 04:16:05;;;;;;;;;9.33;9.33;;;;;9.30;72.06;102086.91;5118671;27;45519;-65
2023/04/08 04:18:31;;;;;;;;;12.33;9.33;;;;;9.30;71.89;102092.19;5119710;27;45376;-65
2023/04/08 04:20:56;;;;;;;;;12.00;10.33;;;;;9.29;71.61;102092.19;5119542;27;45369;-65
2023/04/08 04:23:23;;;;;;;;;11.00;8.67;;;;;9.20;71.90;102077.25;5119108;27;45496;-65
2023/04/08 04:25:48;;;;;;;;;12.00;10.33;;;;;9.25;72.00;102086.03;5119281;27;45296;-64
2023/04/08 04:28:14;;;;;;;;;13.33;9.33;;;;;9.29;71.94;102092.19;5119013;27;45514;-64
2023/04/08 04:30:39;;;;;;;;;9.00;7.00;;;;;9.17;71.92;102072.84;5118298;27;45505;-64
2023/04/08 04:33:05;;;;;;;;;11.67;9.33;;;;;9.33;71.49;102102.69;5118929;27;45948;-64
2023/04/08 04:35:31;;;;;;;;;5.00;5.00;;;;;9.34;71.36;102107.09;5118967;27;45295;-64
2023/04/08 04:37:57;;;;;;;;;7.00;6.67;;;;;9.35;71.21;102102.72;5119239;27;45488;-64
2023/04/08 04:40:22;;;;;;;;;11.67;11.00;;;;;9.35;71.20;102107.97;5118830;27;45330;-65
2023/04/08 04:42:48;;;;;;;;;12.00;9.33;;;;;9.29;71.04;102095.66;5118800;27;46483;-65
2023/04/08 04:45:13;;;;;;;;;11.33;8.00;;;;;9.36;70.88;102107.09;5118582;27;45308;-64
2023/04/08 04:47:39;;;;;;;;;13.00;11.33;;;;;9.31;71.08;102096.56;5119020;27;45232;-64
2023/04/08 04:50:05;;;;;;;;;8.33;8.33;;;;;9.40;71.25;102117.63;5119151;27;45421;-64
2023/04/08 04:52:31;;;;;;;;;8.00;8.00;;;;;9.37;71.46;102108.88;5118848;27;46107;-64
2023/04/08 04:54:56;;;;;;;;;9.33;7.33;;;;;9.34;71.44;102104.47;5118892;27;45441;-64
2023/04/08 04:57:22;;;;;;;;;9.00;8.00;;;;;9.41;71.40;102116.78;5118565;27;45436;-64
2023/04/08 04:59:47;;;;;;;;;11.00;9.33;;;;;9.36;71.95;102105.34;5118489;27;45455;-64
2023/04/08 05:02:13;;;;;;;;;12.33;9.67;;;;;9.45;72.07;102128.16;5117136;27;46456;-64
2023/04/08 05:04:38;;;;;;;;;10.33;8.67;;;;;9.38;72.14;102114.13;5117535;27;45382;-64
2023/04/08 05:07:04;;;;;;;;;15.67;11.00;;;;;9.37;72.23;102117.63;5118892;27;45157;-65
2023/04/08 05:09:29;;;;;;;;;13.67;10.67;;;;;9.39;72.46;102115.88;5118840;27;45603;-64
2023/04/08 05:11:55;;;;;;;;;14.00;11.00;;;;;9.41;72.57;102115.91;5118649;27;45596;-64
2023/04/08 05:14:20;;;;;;;;;8.67;8.67;;;;;9.45;72.67;102120.28;5118466;27;45448;-64
2023/04/08 05:16:46;;;;;;;;;11.67;11.67;;;;;9.49;72.68;102126.44;5118601;27;45342;-64
2023/04/08 05:19:11;;;;;;;;;16.33;13.00;;;;;9.42;72.84;102115.00;5117674;27;45457;-64
2023/04/08 05:21:36;;;;;;;;;16.33;14.67;;;;;9.48;72.90;102122.91;5117895;27;46229;-64
2023/04/08 05:24:02;;;;;;;;;16.67;11.33;;;;;9.48;73.26;102133.44;5118325;27;45199;-64
2023/04/08 05:26:27;;;;;;;;;14.00;13.00;;;;;9.48;73.24;102132.56;5118442;27;45769;-64
2023/04/08 05:28:53;;;;;;;;;15.67;12.33;;;;;9.48;73.31;102140.44;5118146;27;45354;-64
2023/04/08 05:31:19;;;;;;;;;22.67;22.67;;;;;9.52;73.02;102134.34;5118313;27;46479;-64
2023/04/08 05:33:45;;;;;;;;;8.33;6.67;;;;;9.51;73.15;102143.09;5117873;27;45338;-64
2023/04/08 05:36:11;;;;;;;;;13.00;12.00;;;;;9.51;73.18;102143.09;5117943;27;45592;-64
2023/04/08 05:38:37;;;;;;;;;17.33;14.00;;;;;9.44;73.20;102134.31;5118296;27;45354;-64
2023/04/08 05:41:02;;;;;;;;;14.00;12.67;;;;;9.54;73.29;102153.63;5117873;27;47551;-65
2023/04/08 05:43:27;;;;;;;;;15.00;12.00;;;;;9.56;73.20;102157.16;5118148;27;45242;-64
2023/04/08 05:45:53;;;;;;;;;21.33;16.00;;;;;9.50;73.52;102158.00;5118246;27;45303;-64
2023/04/08 05:48:18;;;;;;;;;11.33;11.00;;;;;9.57;73.27;102165.03;5118499;27;45441;-65
2023/04/08 05:50:43;;;;;;;;;15.50;13.00;;;;;9.61;73.38;102163.28;5118099;27;45290;-64
2023/04/08 05:53:09;;;;;;;;;13.67;13.00;;;;;9.53;73.39;102158.00;5117758;27;45414;-65
2023/04/08 05:55:34;;;;;;;;;15.00;14.00;;;;;9.49;73.77;102155.34;5118056;27;45361;-65
2023/04/08 05:58:00;;;;;;;;;18.67;14.00;;;;;9.62;73.37;102179.97;5117974;27;45413;-64
2023/04/08 06:00:25;;;;;;;;;16.67;13.00;;;;;9.38;73.59;102137.78;5117125;27;45422;-64
2023/04/08 06:02:51;;;;;;;;;13.00;12.00;;;;;9.61;73.70;102173.81;5117468;27;45441;-64
2023/04/08 06:05:17;;;;;;;;;13.00;11.00;;;;;9.56;73.81;102165.91;5118076;27;45280;-64
2023/04/08 06:07:43;;;;;;;;;10.67;9.00;;;;;9.59;73.78;102167.69;5118187;27;45568;-65
2023/04/08 06:10:09;;;;;;;;;16.67;13.00;;;;;9.65;74.05;102180.84;5117754;27;46202;-65
2023/04/08 06:12:36;;;;;;;;;17.00;12.67;;;;;9.70;73.72;102187.00;5117356;27;45486;-65
2023/04/08 06:15:01;;;;;;;;;23.00;15.00;;;;;9.62;73.90;102177.34;5119540;27;46134;-64
2023/04/08 06:17:26;;;;;;;;;12.33;8.00;;;;;9.65;74.07;102188.72;5120655;27;45320;-64
2023/04/08 06:19:52;;;;;;;;;15.67;13.67;;;;;9.70;74.17;102186.13;5120767;27;45485;-64
2023/04/08 06:22:17;;;;;;;;;17.33;14.00;;;;;9.72;74.05;102187.00;5121023;27;45328;-64
2023/04/08 06:24:43;;;;;;;;;16.33;13.00;;;;;9.73;74.16;102188.75;5121312;27;45440;-65
2023/04/08 06:27:08;;;;;;;;;15.67;14.00;;;;;9.72;74.08;102201.03;5121130;27;45350;-64
2023/04/08 06:29:33;;;;;;;;;14.67;13.00;;;;;9.74;74.42;102196.69;5120616;27;46261;-64
2023/04/08 06:31:59;;;;;;;;;23.67;20.33;;;;;9.74;74.64;102198.41;5121107;27;45303;-64
2023/04/08 06:34:24;;;;;;;;;15.33;12.67;;;;;9.79;74.20;102196.69;5120680;27;45337;-64
2023/04/08 06:36:50;;;;;;;;;18.67;15.33;;;;;9.72;74.34;102201.03;5120450;27;45231;-64
2023/04/08 06:39:15;;;;;;;;;19.33;15.67;;;;;9.69;74.44;102194.91;5120437;27;46424;-64
2023/04/08 06:41:41;;;;;;;;;17.00;15.33;;;;;9.83;74.32;102218.63;5120558;27;45444;-64
2023/04/08 06:44:06;;;;;;;;;21.33;14.00;;;;;9.84;74.24;102215.13;5121020;27;45221;-64
2023/04/08 06:46:32;;;;;;;;;14.67;13.67;;;;;9.88;74.34;102216.88;5121054;27;45392;-64
2023/04/08 06:48:57;;;;;;;;;17.00;12.00;;;;;9.84;74.21;102215.13;5120310;27;46452;-65
2023/04/08 06:51:22;;;;;;;;;13.00;12.00;;;;;9.84;74.00;102209.84;5120466;27;45339;-65
2023/04/08 06:53:48;;;;;;;;;17.67;13.67;;;;;9.91;73.67;102217.75;5120702;27;45466;-65
2023/04/08 06:56:13;;;;;;;;;16.33;15.00;;;;;9.92;74.01;102219.53;5120979;27;45272;-64
2023/04/08 06:58:38;;;;;;;;;16.00;12.33;;;;;9.90;73.98;102209.88;5119997;27;45519;-64
2023/04/08 07:01:04;;;;;;;;;15.67;13.67;;;;;9.90;74.12;102218.66;5119380;27;45452;-64
2023/04/08 07:03:29;;;;;;;;;23.00;15.67;;;;;9.99;74.00;102219.53;5120140;27;45339;-64
2023/04/08 07:05:55;;;;;;;;;18.00;15.00;;;;;9.96;73.75;102211.66;5120825;27;45420;-64
2023/04/08 07:08:20;;;;;;;;;16.33;15.33;;;;;9.96;73.62;102219.53;5120187;27;46149;-64
2023/04/08 07:10:46;;;;;;;;;20.67;15.67;;;;;10.00;73.86;102219.56;5119985;27;45434;-65
2023/04/08 07:13:12;;;;;;;;;15.00;15.00;;;;;10.00;74.00;102224.81;5120204;27;45479;-64
2023/04/08 07:15:37;;;;;;;;;21.00;14.67;;;;;10.02;73.75;102224.81;5120576;27;45524;-65
2023/04/08 07:18:03;;;;;;;;;15.67;14.00;;;;;10.06;73.10;102223.97;5119374;27;46722;-64
2023/04/08 07:20:29;;;;;;;;;17.33;14.00;;;;;10.11;73.67;102232.75;5120228;27;45277;-64
2023/04/08 07:22:55;;;;;;;;;17.00;14.00;;;;;10.17;73.36;102239.81;5119988;27;45379;-64
2023/04/08 07:25:20;;;;;;;;;19.00;14.00;;;;;10.18;73.37;102247.69;5120066;27;45376;-64
2023/04/08 07:27:45;;;;;;;;;14.33;14.00;;;;;10.17;73.08;102247.69;5119047;27;46379;-64
2023/04/08 07:30:11;;;;;;;;;20.33;13.00;;;;;10.25;73.53;102246.84;5120015;27;45137;-64
2023/04/08 07:32:37;;;;;;;;;18.00;14.33;;;;;10.27;73.16;102236.31;5120129;27;45275;-64
2023/04/08 07:35:02;;;;;;;;;19.67;16.00;;;;;10.36;72.99;102241.63;5120374;27;45447;-64
2023/04/08 07:37:28;;;;;;;;;21.00;17.33;;;;;10.54;72.61;102251.34;5119734;27;47618;-64
2023/04/08 07:39:54;;;;;;;;;21.67;17.67;;;;;10.39;71.32;102209.16;5118911;27;45465;-65
2023/04/08 07:42:19;;;;;;;;;18.00;17.00;;;;;10.69;71.29;102261.00;5119854;27;45323;-65
2023/04/08 07:44:45;;;;;;;;;17.67;15.00;;;;;10.53;70.84;102217.97;5119834;27;45679;-65
2023/04/08 07:47:10;;;;;;;;;17.67;14.00;;;;;10.79;70.12;102249.59;5119615;27;46083;-65
2023/04/08 07:49:36;;;;;;;;;21.00;15.33;;;;;10.97;68.82;102256.63;5119368;27;45380;-65
2023/04/08 07:52:02;;;;;;;;;19.00;12.67;;;;;11.38;68.17;102261.88;5119818;27;45370;-65
2023/04/08 07:54:30;;;;;;;;;13.33;11.00;;;;;11.72;66.77;102265.31;5119854;27;45548;-64
2023/04/08 07:56:56;;;;;;;;;18.67;12.67;;;;;12.00;65.17;102254.69;5119276;27;47371;-65
2023/04/08 07:59:21;;;;;;;;;14.33;12.00;;;;;12.20;64.49;102257.22;5119158;27;45477;-64
2023/04/08 08:01:46;;;;;;;;;21.00;18.67;;;;;12.41;62.87;102268.56;5118639;27;45376;-64
2023/04/08 08:04:12;;;;;;;;;13.00;11.00;;;;;12.61;62.63;102271.09;5119834;27;45317;-64
2023/04/08 08:06:37;;;;;;;;;13.67;13.33;;;;;12.70;60.83;102274.50;5118995;27;46620;-65
2023/04/08 08:09:03;;;;;;;;;14.67;13.00;;;;;12.83;60.64;102270.03;5119221;27;45306;-65
2023/04/08 08:11:28;;;;;;;;;12.67;11.67;;;;;13.07;59.85;102268.09;5119307;27;45244;-65
2023/04/08 08:13:54;;;;;;;;;13.00;12.00;;;;;13.27;59.39;102261.72;5119324;27;45520;-65
2023/04/08 08:16:19;;;;;;;;;8.67;8.67;;;;;13.49;58.52;102265.06;5118949;27;46586;-65
2023/04/08 08:18:45;;;;;;;;;12.00;10.67;;;;;13.69;58.25;102268.34;5118926;27;45480;-64
2023/04/08 08:21:10;;;;;;;;;11.33;11.33;;;;;13.78;57.26;102254.13;5116091;27;45302;-65
2023/04/08 08:23:36;;;;;;;;;15.00;13.00;;;;;13.97;57.11;102264.50;5118483;27;45592;-65
2023/04/08 08:26:10;;;;;;;;;12.33;12.33;;;;;14.13;58.07;102267.84;5118123;27;46661;-65
2023/04/08 08:28:37;;;;;;;;;21.00;20.00;;;;;14.26;56.14;102262.38;5118672;27;45517;-65
2023/04/08 08:31:02;;;;;;;;;10.33;10.33;;;;;14.42;56.09;102263.03;5118499;27;45454;-65
2023/04/08 08:33:28;;;;;;;;;13.00;12.67;;;;;14.62;54.97;102267.19;5118478;27;45420;-65
2023/04/08 08:35:54;;;;;;;;;17.67;16.00;;;;;14.75;54.52;102254.63;5118303;27;45625;-65
2023/04/08 08:38:19;;;;;;;;;12.00;12.00;;;;;14.79;54.59;102257.19;5117177;27;45218;-65
2023/04/08 08:40:45;;;;;;;;;15.00;13.33;;;;;14.98;53.04;102256.88;5118605;27;45413;-66
2023/04/08 08:43:10;;;;;;;;;18.33;12.33;;;;;15.20;52.12;102249.44;5118242;27;45713;-66
2023/04/08 08:45:40;;;;;;;;;16.00;13.00;;;;;15.57;50.83;102253.16;5118376;27;46614;-65
2023/04/08 08:48:07;;;;;;;;;12.00;12.00;;;;;16.16;49.74;102245.81;5118748;27;45382;-65
2023/04/08 08:50:33;;;;;;;;;18.33;17.67;;;;;16.65;48.71;102248.22;5118547;27;45457;-65
2023/04/08 08:52:58;;;;;;;;;13.00;12.00;;;;;17.65;47.79;102250.09;5118765;27;45350;-65
2023/04/08 08:55:24;;;;;;;;;4.00;1.00;;;;;18.70;45.05;102250.47;5118206;27;46243;-65
2023/04/08 08:57:50;;;;;;;;;20.33;15.00;;;;;19.08;43.37;102263.50;5117825;27;45236;-65
2023/04/08 09:00:16;;;;;;;;;14.00;10.33;;;;;19.22;44.32;102250.53;5118654;27;45166;-65
2023/04/08 09:02:42;;;;;;;;;13.00;12.67;;;;;19.51;44.93;102263.78;5118320;27;45601;-65
2023/04/08 09:05:07;;;;;;;;;15.33;11.67;;;;;21.38;39.73;102258.13;5118218;27;45503;-66
2023/04/08 09:07:39;;;;;;;;;14.33;11.33;;;;;21.78;38.28;102260.84;5118539;27;45383;-65
2023/04/08 09:10:05;;;;;;;;;10.00;9.00;;;;;21.33;38.14;102249.44;5117805;27;45326;-65
2023/04/08 09:12:31;;;;;;;;;11.00;8.67;;;;;21.08;39.86;102254.13;5118245;27;45433;-65
2023/04/08 09:15:04;;;;;;;;;10.67;10.67;;;;;21.55;37.82;102245.81;5116458;27;45477;-65
2023/04/08 09:17:37;;;;;;;;;15.00;14.00;;;;;21.34;39.10;102258.34;5117932;27;45441;-65
2023/04/08 09:20:10;;;;;;;;;14.67;12.00;;;;;20.70;38.23;102257.47;5118689;27;45475;-65
2023/04/08 09:23:02;;;;;;;;;13.67;13.67;;;;;20.40;40.55;102265.78;5118270;27;45236;-65
2023/04/08 09:25:31;;;;;;;;;15.00;12.67;;;;;20.59;38.93;102257.88;5116849;27;45268;-65
2023/04/08 09:27:57;;;;;;;;;16.33;14.67;;;;;20.38;38.00;102264.13;5116757;27;45626;-65
2023/04/08 09:30:24;;;;;;;;;17.67;14.00;;;;;20.16;39.25;102273.84;5117574;27;46605;-65
2023/04/08 09:32:52;;;;;;;;;15.00;13.00;;;;;19.78;41.38;102272.56;5118329;27;45507;-66
2023/04/08 09:35:21;;;;;;;;;21.00;18.33;;;;;19.40;39.71;102277.50;5116550;27;45677;-65
2023/04/08 09:37:48;;;;;;;;;12.00;12.00;;;;;19.03;39.97;102278.81;5118077;27;45395;-64
2023/04/08 09:40:17;;;;;;;;;13.67;11.67;;;;;18.60;41.49;102265.94;5116082;27;45534;-65
2023/04/08 09:42:49;;;;;;;;;12.33;10.00;;;;;19.25;41.04;102277.13;5112458;27;45558;-65
2023/04/08 09:45:16;;;;;;;;;18.33;17.33;;;;;20.46;38.64;102268.22;5117518;27;45664;-65
2023/04/08 09:47:54;;;;;;;;;16.67;15.00;;;;;21.75;37.54;102274.41;5117653;27;45387;-65
2023/04/08 09:50:25;;;;;;;;;18.67;13.33;;;;;22.34;37.80;102271.72;5118787;27;45418;-65
2023/04/08 09:52:56;;;;;;;;;14.67;12.67;;;;;22.83;34.01;102268.44;5121497;27;45178;-65
2023/04/08 09:55:22;;;;;;;;;10.67;9.33;;;;;23.78;34.96;102271.53;5121243;27;46578;-65
2023/04/08 09:57:57;;;;;;;;;12.67;11.67;;;;;23.76;35.56;102270.78;5120554;27;45362;-65
2023/04/08 10:00:28;;;;;;;;;13.67;12.00;;;;;23.43;33.73;102268.06;5119995;27;45514;-65
2023/04/08 10:03:07;;;;;;;;;13.00;12.67;;;;;23.04;32.44;102269.16;5121077;27;45484;-65
2023/04/08 10:05:36;;;;;;;;;18.00;16.67;;;;;22.18;34.38;102277.78;5120706;27;46112;-63
2023/04/08 10:08:09;;;;;;;;;15.33;14.00;;;;;21.42;34.98;102260.69;5120971;27;45313;-64
2023/04/08 10:10:35;;;;;;;;;16.33;13.33;;;;;20.99;36.32;102261.63;5121006;27;45394;-64
2023/04/08 10:13:02;;;;;;;;;18.67;15.33;;;;;20.50;36.10;102259.13;5121479;27;45492;-65
2023/04/08 10:15:30;;;;;;;;;16.67;15.00;;;;;21.15;37.93;102264.50;5119880;27;45630;-64
2023/04/08 10:18:19;;;;;;;;;16.33;14.33;;;;;21.47;35.86;102258.69;5121010;27;45313;-66
2023/04/08 10:20:46;;;;;;;;;16.67;12.33;;;;;21.08;35.32;102240.75;5119938;27;45445;-65
2023/04/08 10:23:16;;;;;;;;;17.67;16.33;;;;;20.77;36.65;102245.59;5120928;27;45559;-64
2023/04/08 10:25:48;;;;;;;;;14.00;13.33;;;;;20.68;37.00;102249.50;5120226;27;45410;-64
2023/04/08 10:28:14;;;;;;;;;12.00;11.00;;;;;20.73;36.53;102261.84;5119413;27;45525;-64
2023/04/08 10:30:46;;;;;;;;;14.00;13.33;;;;;20.74;38.50;102248.41;5120143;27;45527;-65
2023/04/08 10:33:18;;;;;;;;;21.33;13.33;;;;;21.56;35.45;102264.50;5120390;27;45519;-65
2023/04/08 10:35:49;;;;;;;;;17.00;14.00;;;;;22.13;35.50;102268.22;5120716;27;45413;-66
2023/04/08 10:38:16;;;;;;;;;14.67;14.33;;;;;22.39;35.15;102254.47;5120414;27;45460;-67
2023/04/08 10:40:43;;;;;;;;;17.00;12.33;;;;;22.21;34.18;102263.38;5120396;27;45401;-66
2023/04/08 10:43:13;;;;;;;;;17.67;12.67;;;;;21.71;34.72;102265.66;5120414;27;45636;-66
2023/04/08 10:45:39;;;;;;;;;14.67;13.67;;;;;21.11;34.70;102260.22;5119495;27;46142;-65
2023/04/08 10:48:21;;;;;;;;;17.00;16.00;;;;;20.48;35.72;102269.03;5120241;27;45284;-68
2023/04/08 10:51:12;;;;;;;;;15.00;14.00;;;;;19.80;37.16;102260.94;5120137;27;45219;-68
2023/04/08 10:53:38;;;;;;;;;17.00;16.00;;;;;19.51;37.38;102263.78;5118778;27;45375;-66
2023/04/08 10:56:16;;;;;;;;;14.00;11.67;;;;;19.11;38.45;102266.94;5120220;27;46200;-66
2023/04/08 10:58:49;;;;;;;;;11.67;11.33;;;;;18.78;39.32;102264.44;5115127;27;45497;-65
2023/04/08 11:01:14;;;;;;;;;15.67;14.67;;;;;18.55;38.98;102267.00;5118568;27;45768;-65
2023/04/08 11:03:41;;;;;;;;;14.33;11.67;;;;;18.26;39.40;102250.09;5120641;27;45405;-65
2023/04/08 11:06:07;;;;;;;;;14.00;11.33;;;;;18.12;39.77;102262.97;5120228;27;47109;-64
2023/04/08 11:08:34;;;;;;;;;13.67;13.67;;;;;17.90;40.10;102252.94;5120317;27;45410;-65
2023/04/08 11:11:07;;;;;;;;;12.33;12.00;;;;;17.67;40.14;102248.25;5119830;27;46612;-64
2023/04/08 11:13:35;;;;;;;;;16.67;15.00;;;;;17.64;40.81;102262.53;5120303;27;45227;-65
2023/04/08 11:16:01;;;;;;;;;8.33;7.00;;;;;17.52;40.93;102255.75;5117941;27;47304;-64